sensor_id;sensor_type;location;lat;lon;timestamp;pressure;altitude;pressure_sealevel;temperature;humidity
49835;BME280;35729;52.090;13.162;2024-03-02T00:01:06;100040.97;;;6.08;100.00
49835;BME280;35729;52.090;13.162;2024-03-02T00:03:36;100034.91;;;6.09;100.00
49835;BME280;35729;52.090;13.162;2024-03-02T00:06:09;100035.78;;;6.09;100.00
49835;BME280;35729;52.090;13.162;2024-03-02T00:08:38;100042.69;;;6.10;100.00
49835;BME280;35729;52.090;13.162;2024-03-02T00:11:07;100032.25;;;6.12;100.00
49835;BME280;35729;52.090;13.162;2024-03-02T00:13:37;100036.56;;;6.13;100.00
49835;BME280;35729;52.090;13.162;2024-03-02T00:16:06;100035.69;;;6.14;100.00
49835;BME280;35729;52.090;13.162;2024-03-02T00:18:35;100034.81;;;6.15;100.00
49835;BME280;35729;52.090;13.162;2024-03-02T00:21:08;100038.28;;;6.14;100.00
49835;BME280;35729;52.090;13.162;2024-03-02T00:23:38;100035.66;;;6.15;100.00
49835;BME280;35729;52.090;13.162;2024-03-02T00:26:11;100034.81;;;6.15;100.00
49835;BME280;35729;52.090;13.162;2024-03-02T00:28:40;100037.41;;;6.15;100.00
49835;BME280;35729;52.090;13.162;2024-03-02T00:31:11;100039.16;;;6.14;100.00
49835;BME280;35729;52.090;13.162;2024-03-02T00:33:41;100029.59;;;6.15;100.00
49835;BME280;35729;52.090;13.162;2024-03-02T00:36:14;100022.69;;;6.12;100.00
49835;BME280;35729;52.090;13.162;2024-03-02T00:38:46;100020.09;;;6.12;100.00
49835;BME280;35729;52.090;13.162;2024-03-02T00:41:19;100026.16;;;6.13;100.00
49835;BME280;35729;52.090;13.162;2024-03-02T00:43:51;100028.75;;;6.13;100.00
49835;BME280;35729;52.090;13.162;2024-03-02T00:46:21;100021.00;;;6.10;100.00
49835;BME280;35729;52.090;13.162;2024-03-02T00:48:56;100015.84;;;6.07;100.00
49835;BME280;35729;52.090;13.162;2024-03-02T00:51:29;100022.75;;;6.08;100.00
49835;BME280;35729;52.090;13.162;2024-03-02T00:53:59;100018.41;;;6.08;100.00
49835;BME280;35729;52.090;13.162;2024-03-02T00:56:29;100010.63;;;6.07;100.00
49835;BME280;35729;52.090;13.162;2024-03-02T00:58:59;100014.09;;;6.07;100.00
49835;BME280;35729;52.090;13.162;2024-03-02T01:01:27;100019.28;;;6.07;100.00
49835;BME280;35729;52.090;13.162;2024-03-02T01:03:56;100017.53;;;6.08;100.00
49835;BME280;35729;52.090;13.162;2024-03-02T01:06:25;100007.13;;;6.08;100.00
49835;BME280;35729;52.090;13.162;2024-03-02T01:08:56;100008.84;;;6.09;100.00
49835;BME280;35729;52.090;13.162;2024-03-02T01:11:24;100011.44;;;6.10;100.00
49835;BME280;35729;52.090;13.162;2024-03-02T01:13:53;100007.97;;;6.10;100.00
49835;BME280;35729;52.090;13.162;2024-03-02T01:16:22;100006.22;;;6.12;100.00
49835;BME280;35729;52.090;13.162;2024-03-02T01:18:50;100006.22;;;6.12;100.00
49835;BME280;35729;52.090;13.162;2024-03-02T01:21:19;100001.00;;;6.12;100.00
49835;BME280;35729;52.090;13.162;2024-03-02T01:23:47;99994.06;;;6.11;100.00
49835;BME280;35729;52.090;13.162;2024-03-02T01:26:18;99992.34;;;6.10;100.00
49835;BME280;35729;52.090;13.162;2024-03-02T01:28:47;99996.72;;;6.08;100.00
49835;BME280;35729;52.090;13.162;2024-03-02T01:31:15;99987.19;;;6.05;100.00
49835;BME280;35729;52.090;13.162;2024-03-02T01:33:44;99987.19;;;6.05;100.00
49835;BME280;35729;52.090;13.162;2024-03-02T01:36:12;99981.16;;;6.05;100.00
49835;BME280;35729;52.090;13.162;2024-03-02T01:38:40;99980.28;;;6.02;100.00
49835;BME280;35729;52.090;13.162;2024-03-02T01:41:09;99980.28;;;6.02;100.00
49835;BME280;35729;52.090;13.162;2024-03-02T01:43:38;99984.63;;;6.03;100.00
49835;BME280;35729;52.090;13.162;2024-03-02T01:46:07;99979.41;;;6.03;100.00
49835;BME280;35729;52.090;13.162;2024-03-02T01:48:35;99984.66;;;6.02;100.00
49835;BME280;35729;52.090;13.162;2024-03-02T01:51:04;99984.63;;;6.03;100.00
49835;BME280;35729;52.090;13.162;2024-03-02T01:53:33;99986.38;;;6.01;100.00
49835;BME280;35729;52.090;13.162;2024-03-02T01:56:02;99982.91;;;6.02;100.00
49835;BME280;35729;52.090;13.162;2024-03-02T01:58:31;99980.34;;;5.99;100.00
49835;BME280;35729;52.090;13.162;2024-03-02T02:01:02;99982.09;;;6.00;100.00
49835;BME280;35729;52.090;13.162;2024-03-02T02:03:30;99976.03;;;5.98;100.00
49835;BME280;35729;52.090;13.162;2024-03-02T02:05:59;99985.56;;;5.98;100.00
49835;BME280;35729;52.090;13.162;2024-03-02T02:08:27;99982.97;;;5.96;100.00
49835;BME280;35729;52.090;13.162;2024-03-02T02:10:55;99981.25;;;5.94;100.00
49835;BME280;35729;52.090;13.162;2024-03-02T02:13:24;99983.91;;;5.92;100.00
49835;BME280;35729;52.090;13.162;2024-03-02T02:15:52;99984.78;;;5.91;100.00
49835;BME280;35729;52.090;13.162;2024-03-02T02:18:24;99974.41;;;5.88;100.00
49835;BME280;35729;52.090;13.162;2024-03-02T02:20:53;99980.47;;;5.88;100.00
49835;BME280;35729;52.090;13.162;2024-03-02T02:23:21;99976.16;;;5.86;100.00
49835;BME280;35729;52.090;13.162;2024-03-02T02:25:50;99981.38;;;5.86;100.00
49835;BME280;35729;52.090;13.162;2024-03-02T02:28:18;99977.94;;;5.84;100.00
49835;BME280;35729;52.090;13.162;2024-03-02T02:30:46;99972.75;;;5.84;100.00
49835;BME280;35729;52.090;13.162;2024-03-02T02:33:15;99978.84;;;5.83;100.00
49835;BME280;35729;52.090;13.162;2024-03-02T02:35:43;99982.28;;;5.83;100.00
49835;BME280;35729;52.090;13.162;2024-03-02T02:38:12;99976.22;;;5.83;100.00
49835;BME280;35729;52.090;13.162;2024-03-02T02:40:40;99978.84;;;5.83;100.00
49835;BME280;35729;52.090;13.162;2024-03-02T02:43:09;99976.22;;;5.83;100.00
49835;BME280;35729;52.090;13.162;2024-03-02T02:45:37;99975.34;;;5.82;100.00
49835;BME280;35729;52.090;13.162;2024-03-02T02:48:06;99977.94;;;5.84;100.00
49835;BME280;35729;52.090;13.162;2024-03-02T02:50:35;99983.16;;;5.84;100.00
49835;BME280;35729;52.090;13.162;2024-03-02T02:53:03;99981.41;;;5.84;100.00
49835;BME280;35729;52.090;13.162;2024-03-02T02:55:41;99976.19;;;5.84;100.00
49835;BME280;35729;52.090;13.162;2024-03-02T02:58:10;99970.97;;;5.86;100.00
49835;BME280;35729;52.090;13.162;2024-03-02T03:00:40;99970.97;;;5.86;100.00
49835;BME280;35729;52.090;13.162;2024-03-02T03:03:08;99975.25;;;5.88;100.00
49835;BME280;35729;52.090;13.162;2024-03-02T03:05:36;99970.94;;;5.89;100.00
49835;BME280;35729;52.090;13.162;2024-03-02T03:08:05;99974.38;;;5.90;100.00
49835;BME280;35729;52.090;13.162;2024-03-02T03:10:34;99970.91;;;5.91;100.00
49835;BME280;35729;52.090;13.162;2024-03-02T03:13:05;99976.09;;;5.92;100.00
49835;BME280;35729;52.090;13.162;2024-03-02T03:15:34;99976.06;;;5.94;100.00
49835;BME280;35729;52.090;13.162;2024-03-02T03:18:04;99964.78;;;5.93;100.00
49835;BME280;35729;52.090;13.162;2024-03-02T03:20:33;99965.63;;;5.94;100.00
49835;BME280;35729;52.090;13.162;2024-03-02T03:23:02;99971.69;;;5.96;100.00
49835;BME280;35729;52.090;13.162;2024-03-02T03:25:30;99973.41;;;5.97;100.00
49835;BME280;35729;52.090;13.162;2024-03-02T03:27:59;99969.94;;;5.96;100.00
49835;BME280;35729;52.090;13.162;2024-03-02T03:30:31;99975.16;;;5.98;100.00
49835;BME280;35729;52.090;13.162;2024-03-02T03:32:59;99970.81;;;5.98;100.00
49835;BME280;35729;52.090;13.162;2024-03-02T03:35:27;99974.28;;;5.99;100.00
49835;BME280;35729;52.090;13.162;2024-03-02T03:37:56;99967.34;;;5.99;100.00
49835;BME280;35729;52.090;13.162;2024-03-02T03:40:24;99963.84;;;6.00;100.00
49835;BME280;35729;52.090;13.162;2024-03-02T03:42:53;99967.34;;;5.99;100.00
49835;BME280;35729;52.090;13.162;2024-03-02T03:45:22;99969.06;;;5.97;100.00
49835;BME280;35729;52.090;13.162;2024-03-02T03:47:54;99972.53;;;5.98;100.00
49835;BME280;35729;52.090;13.162;2024-03-02T03:50:22;99976.88;;;5.99;100.00
49835;BME280;35729;52.090;13.162;2024-03-02T03:52:51;99972.53;;;5.99;100.00
49835;BME280;35729;52.090;13.162;2024-03-02T03:55:19;99977.75;;;5.99;100.00
49835;BME280;35729;52.090;13.162;2024-03-02T03:57:48;99983.81;;;6.00;100.00
49835;BME280;35729;52.090;13.162;2024-03-02T04:00:14;99984.69;;;6.00;100.00
49835;BME280;35729;52.090;13.162;2024-03-02T04:02:43;99993.31;;;6.02;100.00
49835;BME280;35729;52.090;13.162;2024-03-02T04:05:14;99991.59;;;6.01;100.00
49835;BME280;35729;52.090;13.162;2024-03-02T04:07:42;99997.63;;;6.05;100.00
49835;BME280;35729;52.090;13.162;2024-03-02T04:10:11;100002.81;;;6.05;100.00
49835;BME280;35729;52.090;13.162;2024-03-02T04:12:39;100000.22;;;6.07;100.00
49835;BME280;35729;52.090;13.162;2024-03-02T04:15:08;99998.47;;;6.07;100.00
49835;BME280;35729;52.090;13.162;2024-03-02T04:17:37;100006.25;;;6.09;100.00
49835;BME280;35729;52.090;13.162;2024-03-02T04:20:06;100001.91;;;6.09;100.00
49835;BME280;35729;52.090;13.162;2024-03-02T04:22:37;99995.84;;;6.09;100.00
49835;BME280;35729;52.090;13.162;2024-03-02T04:25:07;99994.94;;;6.10;100.00
49835;BME280;35729;52.090;13.162;2024-03-02T04:27:35;100000.16;;;6.10;100.00
49835;BME280;35729;52.090;13.162;2024-03-02T04:30:05;99994.94;;;6.10;100.00
49835;BME280;35729;52.090;13.162;2024-03-02T04:32:34;100002.75;;;6.10;100.00
49835;BME280;35729;52.090;13.162;2024-03-02T04:35:03;100001.91;;;6.09;100.00
49835;BME280;35729;52.090;13.162;2024-03-02T04:37:37;100004.50;;;6.11;100.00
49835;BME280;35729;52.090;13.162;2024-03-02T04:40:07;100008.81;;;6.12;100.00
49835;BME280;35729;52.090;13.162;2024-03-02T04:42:36;100009.63;;;6.14;100.00
49835;BME280;35729;52.090;13.162;2024-03-02T04:45:05;100021.75;;;6.16;100.00
49835;BME280;35729;52.090;13.162;2024-03-02T04:47:34;100025.25;;;6.17;100.00
49835;BME280;35729;52.090;13.162;2024-03-02T04:50:04;100030.34;;;6.22;100.00
49835;BME280;35729;52.090;13.162;2024-03-02T04:52:34;100027.75;;;6.23;100.00
49835;BME280;35729;52.090;13.162;2024-03-02T04:55:05;100032.91;;;6.26;100.00
49835;BME280;35729;52.090;13.162;2024-03-02T04:57:49;100022.44;;;6.29;100.00
49835;BME280;35729;52.090;13.162;2024-03-02T05:00:20;100029.34;;;6.30;100.00
49835;BME280;35729;52.090;13.162;2024-03-02T05:02:48;100036.25;;;6.33;100.00
49835;BME280;35729;52.090;13.162;2024-03-02T05:05:17;100033.66;;;6.34;100.00
49835;BME280;35729;52.090;13.162;2024-03-02T05:07:45;100027.53;;;6.35;100.00
49835;BME280;35729;52.090;13.162;2024-03-02T05:10:16;100037.94;;;6.39;100.00
49835;BME280;35729;52.090;13.162;2024-03-02T05:12:51;100024.91;;;6.39;100.00
49835;BME280;35729;52.090;13.162;2024-03-02T05:15:24;100026.63;;;6.38;100.00
49835;BME280;35729;52.090;13.162;2024-03-02T05:17:53;100035.25;;;6.42;100.00
49835;BME280;35729;52.090;13.162;2024-03-02T05:20:22;100036.09;;;6.44;100.00
49835;BME280;35729;52.090;13.162;2024-03-02T05:22:50;100034.34;;;6.44;100.00
49835;BME280;35729;52.090;13.162;2024-03-02T05:25:21;100040.41;;;6.46;100.00
49835;BME280;35729;52.090;13.162;2024-03-02T05:27:56;100036.94;;;6.46;100.00
49835;BME280;35729;52.090;13.162;2024-03-02T05:30:25;100046.47;;;6.48;100.00
49835;BME280;35729;52.090;13.162;2024-03-02T05:32:54;100053.41;;;6.48;100.00
49835;BME280;35729;52.090;13.162;2024-03-02T05:35:22;100053.41;;;6.48;100.00
49835;BME280;35729;52.090;13.162;2024-03-02T05:37:50;100058.63;;;6.48;100.00
49835;BME280;35729;52.090;13.162;2024-03-02T05:40:22;100055.97;;;6.51;100.00
49835;BME280;35729;52.090;13.162;2024-03-02T05:42:56;100063.78;;;6.51;100.00
49835;BME280;35729;52.090;13.162;2024-03-02T05:45:25;100061.19;;;6.51;100.00
49835;BME280;35729;52.090;13.162;2024-03-02T05:47:53;100062.00;;;6.53;100.00
49835;BME280;35729;52.090;13.162;2024-03-02T05:50:22;100059.44;;;6.51;100.00
49835;BME280;35729;52.090;13.162;2024-03-02T05:52:51;100064.63;;;6.53;100.00
49835;BME280;35729;52.090;13.162;2024-03-02T05:55:24;100075.03;;;6.53;100.00
49835;BME280;35729;52.090;13.162;2024-03-02T05:57:52;100072.47;;;6.51;100.00
49835;BME280;35729;52.090;13.162;2024-03-02T06:00:37;100082.84;;;6.53;100.00
49835;BME280;35729;52.090;13.162;2024-03-02T06:03:05;100080.25;;;6.53;100.00
49835;BME280;35729;52.090;13.162;2024-03-02T06:05:34;100073.31;;;6.52;100.00
49835;BME280;35729;52.090;13.162;2024-03-02T06:08:03;100076.75;;;6.54;100.00
49835;BME280;35729;52.090;13.162;2024-03-02T06:10:35;100074.16;;;6.54;100.00
49835;BME280;35729;52.090;13.162;2024-03-02T06:13:04;100080.25;;;6.55;100.00
49835;BME280;35729;52.090;13.162;2024-03-02T06:15:32;100075.88;;;6.55;100.00
49835;BME280;35729;52.090;13.162;2024-03-02T06:18:01;100070.69;;;6.55;100.00
49835;BME280;35729;52.090;13.162;2024-03-02T06:20:32;100068.03;;;6.57;100.00
49835;BME280;35729;52.090;13.162;2024-03-02T06:23:00;100068.03;;;6.57;100.00
49835;BME280;35729;52.090;13.162;2024-03-02T06:25:29;100065.41;;;6.58;100.00
49835;BME280;35729;52.090;13.162;2024-03-02T06:28:00;100073.22;;;6.60;100.00
49835;BME280;35729;52.090;13.162;2024-03-02T06:30:29;100068.84;;;6.60;100.00
49835;BME280;35729;52.090;13.162;2024-03-02T06:32:58;100067.09;;;6.61;100.00
49835;BME280;35729;52.090;13.162;2024-03-02T06:35:26;100076.59;;;6.63;100.00
49835;BME280;35729;52.090;13.162;2024-03-02T06:37:55;100077.50;;;6.64;100.00
49835;BME280;35729;52.090;13.162;2024-03-02T06:40:23;100070.50;;;6.64;100.00
49835;BME280;35729;52.090;13.162;2024-03-02T06:42:52;100070.47;;;6.66;100.00
49835;BME280;35729;52.090;13.162;2024-03-02T06:45:23;100077.41;;;6.67;100.00
49835;BME280;35729;52.090;13.162;2024-03-02T06:47:51;100082.63;;;6.68;100.00
49835;BME280;35729;52.090;13.162;2024-03-02T06:50:20;100070.47;;;6.67;100.00
49835;BME280;35729;52.090;13.162;2024-03-02T06:52:48;100088.66;;;6.71;100.00
49835;BME280;35729;52.090;13.162;2024-03-02T06:55:17;100094.72;;;6.73;100.00
49835;BME280;35729;52.090;13.162;2024-03-02T06:57:45;100096.44;;;6.74;100.00
49835;BME280;35729;52.090;13.162;2024-03-02T07:00:14;100098.16;;;6.75;100.00
49835;BME280;35729;52.090;13.162;2024-03-02T07:02:46;100095.50;;;6.78;100.00
49835;BME280;35729;52.090;13.162;2024-03-02T07:05:27;100106.81;;;6.77;100.00
49835;BME280;35729;52.090;13.162;2024-03-02T07:07:56;100112.00;;;6.80;100.00
49835;BME280;35729;52.090;13.162;2024-03-02T07:10:24;100105.00;;;6.82;100.00
49835;BME280;35729;52.090;13.162;2024-03-02T07:12:53;100116.31;;;6.82;100.00
49835;BME280;35729;52.090;13.162;2024-03-02T07:15:21;100117.16;;;6.83;100.00
49835;BME280;35729;52.090;13.162;2024-03-02T07:18:05;100126.66;;;6.85;100.00
49835;BME280;35729;52.090;13.162;2024-03-02T07:20:33;100127.47;;;6.89;100.00
49835;BME280;35729;52.090;13.162;2024-03-02T07:23:04;100136.19;;;6.88;100.00
49835;BME280;35729;52.090;13.162;2024-03-02T07:25:32;100139.66;;;6.90;100.00
49835;BME280;35729;52.090;13.162;2024-03-02T07:28:00;100131.78;;;6.92;100.00
49835;BME280;35729;52.090;13.162;2024-03-02T07:30:29;100142.19;;;6.93;100.00
49835;BME280;35729;52.090;13.162;2024-03-02T07:32:58;100137.81;;;6.95;100.00
49835;BME280;35729;52.090;13.162;2024-03-02T07:35:29;100141.25;;;6.97;100.00
49835;BME280;35729;52.090;13.162;2024-03-02T07:37:57;100136.03;;;6.97;100.00
49835;BME280;35729;52.090;13.162;2024-03-02T07:40:26;100139.47;;;6.99;100.00
49835;BME280;35729;52.090;13.162;2024-03-02T07:42:54;100142.09;;;6.99;100.00
49835;BME280;35729;52.090;13.162;2024-03-02T07:45:23;100130.78;;;7.00;100.00
49835;BME280;35729;52.090;13.162;2024-03-02T07:47:51;100138.53;;;7.04;100.00
49835;BME280;35729;52.090;13.162;2024-03-02T07:50:20;100141.06;;;7.08;100.00
49835;BME280;35729;52.090;13.162;2024-03-02T07:52:51;100141.88;;;7.12;100.00
49835;BME280;35729;52.090;13.162;2024-03-02T07:55:19;100144.41;;;7.16;100.00
49835;BME280;35729;52.090;13.162;2024-03-02T07:57:49;100153.03;;;7.20;100.00
49835;BME280;35729;52.090;13.162;2024-03-02T08:00:18;100162.56;;;7.24;100.00
49835;BME280;35729;52.090;13.162;2024-03-02T08:02:46;100165.94;;;7.28;100.00
49835;BME280;35729;52.090;13.162;2024-03-02T08:05:16;100166.75;;;7.31;100.00
49835;BME280;35729;52.090;13.162;2024-03-02T08:07:45;100171.03;;;7.37;100.00
49835;BME280;35729;52.090;13.162;2024-03-02T08:10:16;100175.31;;;7.40;100.00
49835;BME280;35729;52.090;13.162;2024-03-02T08:12:45;100172.66;;;7.43;100.00
49835;BME280;35729;52.090;13.162;2024-03-02T08:15:13;100167.34;;;7.47;100.00
49835;BME280;35729;52.090;13.162;2024-03-02T08:17:42;100164.66;;;7.52;100.00
49835;BME280;35729;52.090;13.162;2024-03-02T08:20:14;100167.19;;;7.57;100.00
49835;BME280;35729;52.090;13.162;2024-03-02T08:22:42;100173.16;;;7.62;100.00
49835;BME280;35729;52.090;13.162;2024-03-02T08:25:12;100164.38;;;7.68;100.00
49835;BME280;35729;52.090;13.162;2024-03-02T08:27:44;100169.53;;;7.72;100.00
49835;BME280;35729;52.090;13.162;2024-03-02T08:30:13;100167.69;;;7.77;100.00
49835;BME280;35729;52.090;13.162;2024-03-02T08:32:41;100169.28;;;7.83;100.00
49835;BME280;35729;52.090;13.162;2024-03-02T08:35:10;100175.28;;;7.88;100.00
49835;BME280;35729;52.090;13.162;2024-03-02T08:37:40;100167.31;;;7.94;100.00
49835;BME280;35729;52.090;13.162;2024-03-02T08:40:10;100173.34;;;7.98;100.00
49835;BME280;35729;52.090;13.162;2024-03-02T08:42:39;100172.41;;;8.02;100.00
49835;BME280;35729;52.090;13.162;2024-03-02T08:45:10;100170.53;;;8.07;100.00
49835;BME280;35729;52.090;13.162;2024-03-02T08:47:39;100169.63;;;8.11;100.00
49835;BME280;35729;52.090;13.162;2024-03-02T08:50:08;100176.53;;;8.14;100.00
49835;BME280;35729;52.090;13.162;2024-03-02T08:52:36;100169.44;;;8.19;100.00
49835;BME280;35729;52.090;13.162;2024-03-02T08:55:06;100171.06;;;8.25;100.00
49835;BME280;35729;52.090;13.162;2024-03-02T08:57:36;100169.19;;;8.30;100.00
49835;BME280;35729;52.090;13.162;2024-03-02T09:00:06;100179.59;;;8.33;100.00
49835;BME280;35729;52.090;13.162;2024-03-02T09:02:38;100176.06;;;8.36;100.00
49835;BME280;35729;52.090;13.162;2024-03-02T09:05:19;100183.81;;;8.39;100.00
49835;BME280;35729;52.090;13.162;2024-03-02T09:07:48;100188.13;;;8.41;100.00
49835;BME280;35729;52.090;13.162;2024-03-02T09:10:16;100184.59;;;8.44;100.00
49835;BME280;35729;52.090;13.162;2024-03-02T09:12:45;100188.91;;;8.48;100.00
49835;BME280;35729;52.090;13.162;2024-03-02T09:15:13;100195.81;;;8.51;100.00
49835;BME280;35729;52.090;13.162;2024-03-02T09:17:44;100200.94;;;8.55;100.00
49835;BME280;35729;52.090;13.162;2024-03-02T09:20:13;100198.25;;;8.58;100.00
49835;BME280;35729;52.090;13.162;2024-03-02T09:22:42;100209.47;;;8.63;100.00
49835;BME280;35729;52.090;13.162;2024-03-02T09:25:12;100208.50;;;8.68;100.00
49835;BME280;35729;52.090;13.162;2024-03-02T09:27:41;100204.91;;;8.72;100.00
49835;BME280;35729;52.090;13.162;2024-03-02T09:30:11;100204.81;;;8.76;100.00
49835;BME280;35729;52.090;13.162;2024-03-02T09:32:39;100198.66;;;8.79;100.00
49835;BME280;35729;52.090;13.162;2024-03-02T09:35:11;100199.50;;;8.81;100.00
49835;BME280;35729;52.090;13.162;2024-03-02T09:37:40;100199.34;;;8.87;100.00
49835;BME280;35729;52.090;13.162;2024-03-02T09:40:10;100204.47;;;8.92;100.00
49835;BME280;35729;52.090;13.162;2024-03-02T09:42:39;100207.81;;;8.97;100.00
49835;BME280;35729;52.090;13.162;2024-03-02T09:45:09;100203.38;;;9.01;100.00
49835;BME280;35729;52.090;13.162;2024-03-02T09:47:38;100199.03;;;9.01;100.00
49835;BME280;35729;52.090;13.162;2024-03-02T09:50:10;100210.19;;;9.08;100.00
49835;BME280;35729;52.090;13.162;2024-03-02T09:52:40;100210.09;;;9.12;100.00
49835;BME280;35729;52.090;13.162;2024-03-02T09:55:11;100204.72;;;9.19;100.00
49835;BME280;35729;52.090;13.162;2024-03-02T09:57:41;100195.84;;;9.24;100.00
49835;BME280;35729;52.090;13.162;2024-03-02T10:00:11;100195.72;;;9.29;100.00
49835;BME280;35729;52.090;13.162;2024-03-02T10:02:40;100200.78;;;9.37;100.00
49835;BME280;35729;52.090;13.162;2024-03-02T10:05:12;100204.03;;;9.45;100.00
49835;BME280;35729;52.090;13.162;2024-03-02T10:07:59;100210.75;;;9.55;100.00
49835;BME280;35729;52.090;13.162;2024-03-02T10:10:35;100210.56;;;9.63;100.00
49835;BME280;35729;52.090;13.162;2024-03-02T10:13:06;100208.56;;;9.73;100.00
49835;BME280;35729;52.090;13.162;2024-03-02T10:15:35;100209.22;;;9.81;100.00
49835;BME280;35729;52.090;13.162;2024-03-02T10:18:08;100204.53;;;9.92;100.00
49835;BME280;35729;52.090;13.162;2024-03-02T10:20:40;100199.94;;;10.01;100.00
49835;BME280;35729;52.090;13.162;2024-03-02T10:23:13;100196.28;;;10.06;100.00
49835;BME280;35729;52.090;13.162;2024-03-02T10:25:43;100191.72;;;10.13;100.00
49835;BME280;35729;52.090;13.162;2024-03-02T10:28:12;100189.81;;;10.18;99.40
49835;BME280;35729;52.090;13.162;2024-03-02T10:30:41;100192.28;;;10.24;98.29
49835;BME280;35729;52.090;13.162;2024-03-02T10:33:09;100190.56;;;10.23;96.54
49835;BME280;35729;52.090;13.162;2024-03-02T10:35:41;100186.13;;;10.25;96.48
49835;BME280;35729;52.090;13.162;2024-03-02T10:38:11;100191.19;;;10.32;95.88
49835;BME280;35729;52.090;13.162;2024-03-02T10:40:40;100191.09;;;10.35;95.77
49835;BME280;35729;52.090;13.162;2024-03-02T10:43:09;100195.41;;;10.39;95.23
49835;BME280;35729;52.090;13.162;2024-03-02T10:45:39;100188.31;;;10.41;94.55
49835;BME280;35729;52.090;13.162;2024-03-02T10:48:08;100198.75;;;10.44;94.00
49835;BME280;35729;52.090;13.162;2024-03-02T10:50:36;100194.28;;;10.46;94.09
49835;BME280;35729;52.090;13.162;2024-03-02T10:53:07;100195.97;;;10.49;93.44
49835;BME280;35729;52.090;13.162;2024-03-02T10:55:36;100195.81;;;10.53;93.05
49835;BME280;35729;52.090;13.162;2024-03-02T10:58:05;100190.44;;;10.58;92.57
49835;BME280;35729;52.090;13.162;2024-03-02T11:00:34;100185.03;;;10.63;92.80
49835;BME280;35729;52.090;13.162;2024-03-02T11:03:07;100186.56;;;10.70;92.48
49835;BME280;35729;52.090;13.162;2024-03-02T11:05:37;100186.38;;;10.76;92.70
49835;BME280;35729;52.090;13.162;2024-03-02T11:08:12;100186.19;;;10.82;91.56
49835;BME280;35729;52.090;13.162;2024-03-02T11:10:50;100186.00;;;10.88;91.87
49835;BME280;35729;52.090;13.162;2024-03-02T11:13:22;100177.06;;;10.94;91.61
49835;BME280;35729;52.090;13.162;2024-03-02T11:15:55;100181.28;;;11.00;91.37
49835;BME280;35729;52.090;13.162;2024-03-02T11:18:24;100177.56;;;11.05;91.34
49835;BME280;35729;52.090;13.162;2024-03-02T11:20:53;100181.84;;;11.10;91.51
49835;BME280;35729;52.090;13.162;2024-03-02T11:23:34;100177.13;;;11.19;90.20
49835;BME280;35729;52.090;13.162;2024-03-02T11:26:24;100181.25;;;11.27;88.13
49835;BME280;35729;52.090;13.162;2024-03-02T11:28:54;100179.34;;;11.32;89.02
49835;BME280;35729;52.090;13.162;2024-03-02T11:34:29;100183.91;;;11.52;86.80
49835;BME280;35729;52.090;13.162;2024-03-02T11:36:57;100188.00;;;11.61;86.94
49835;BME280;35729;52.090;13.162;2024-03-02T11:39:29;100190.41;;;11.67;86.05
49835;BME280;35729;52.090;13.162;2024-03-02T11:41:58;100178.81;;;11.72;84.94
49835;BME280;35729;52.090;13.162;2024-03-02T11:44:35;100189.97;;;11.79;82.37
49835;BME280;35729;52.090;13.162;2024-03-02T11:47:06;100186.31;;;11.83;83.57
49835;BME280;35729;52.090;13.162;2024-03-02T11:49:40;100184.25;;;11.92;83.76
49835;BME280;35729;52.090;13.162;2024-03-02T11:52:10;100185.78;;;11.99;83.96
49835;BME280;35729;52.090;13.162;2024-03-02T11:54:43;100179.41;;;12.06;82.52
49835;BME280;35729;52.090;13.162;2024-03-02T11:57:20;100182.59;;;12.14;83.42
49835;BME280;35729;52.090;13.162;2024-03-02T11:59:49;100170.09;;;12.21;82.88
49835;BME280;35729;52.090;13.162;2024-03-02T12:02:19;100179.41;;;12.30;82.49
49835;BME280;35729;52.090;13.162;2024-03-02T12:04:49;100170.34;;;12.37;82.11
49835;BME280;35729;52.090;13.162;2024-03-02T12:07:19;100170.00;;;12.46;81.76
49835;BME280;35729;52.090;13.162;2024-03-02T12:09:59;100169.69;;;12.54;79.87
49835;BME280;35729;52.090;13.162;2024-03-02T12:12:28;100164.97;;;12.62;81.43
49835;BME280;35729;52.090;13.162;2024-03-02T12:14:57;100165.63;;;12.69;81.59
49835;BME280;35729;52.090;13.162;2024-03-02T12:17:26;100157.41;;;12.77;81.53
49835;BME280;35729;52.090;13.162;2024-03-02T12:19:55;100147.53;;;12.82;81.38
49835;BME280;35729;52.090;13.162;2024-03-02T12:22:23;100158.50;;;12.93;80.56
49835;BME280;35729;52.090;13.162;2024-03-02T12:24:54;100155.53;;;13.01;79.93
49835;BME280;35729;52.090;13.162;2024-03-02T12:27:23;100148.31;;;13.06;78.88
49835;BME280;35729;52.090;13.162;2024-03-02T12:29:51;100149.84;;;13.12;78.66
49835;BME280;35729;52.090;13.162;2024-03-02T12:32:21;100154.81;;;13.18;79.22
49835;BME280;35729;52.090;13.162;2024-03-02T12:34:50;100162.44;;;13.26;78.86
49835;BME280;35729;52.090;13.162;2024-03-02T12:37:20;100163.13;;;13.29;77.60
49835;BME280;35729;52.090;13.162;2024-03-02T12:39:48;100154.25;;;13.32;76.73
49835;BME280;35729;52.090;13.162;2024-03-02T12:42:19;100159.50;;;13.32;75.39
49835;BME280;35729;52.090;13.162;2024-03-02T12:44:47;100156.84;;;13.33;75.57
49835;BME280;35729;52.090;13.162;2024-03-02T12:47:16;100142.63;;;13.38;76.41
49835;BME280;35729;52.090;13.162;2024-03-02T12:49:44;100144.94;;;13.45;76.47
49835;BME280;35729;52.090;13.162;2024-03-02T12:52:13;100148.22;;;13.50;75.46
49835;BME280;35729;52.090;13.162;2024-03-02T12:54:42;100147.16;;;13.55;75.53
49835;BME280;35729;52.090;13.162;2024-03-02T12:57:19;100141.69;;;13.59;74.02
49835;BME280;35729;52.090;13.162;2024-03-02T12:59:48;100144.22;;;13.62;75.04